Terminal Aerodrome Forecast
Issued by NWS King Salmon, AK

Home | Current Version | Previous Version | Text Only | Print | Product List | Glossary On
Versions: 1 2 3 4 5 6 7 8 9 10 11 12 13 14 15 16 17 18 19 20 21 22 23 24
000
FTAK31 PANC 221731
TAFAKN
TAF
PAKN 221731Z 2218/2318 15007KT P6SM FEW005 SCT015
      TEMPO 2218/2220 6SM -SHSN BR SCT005 BKN015 OVC025
     FM222000 19008KT 4SM -SHSN BR BKN015 OVC025
     FM230300 VRB05KT P6SM VCSH FEW025 SCT050 BKN100
     FM231200 VRB03KT 6SM -SHSN BR SCT015 BKN025 OVC050=

USA.gov is the U.S. government's official web portal to all federal, state and local government web resources and services.